createdAt,value
2023-01-29T00:00:11.950Z,70.43
2023-01-29T00:02:43.368Z,71.70
2023-01-29T00:05:27.062Z,71.62
2023-01-29T00:07:57.099Z,71.65
2023-01-29T00:10:25.789Z,71.71
2023-01-29T00:12:53.964Z,71.38
2023-01-29T00:15:22.261Z,71.65
2023-01-29T00:17:50.689Z,71.87
2023-01-29T00:20:20.362Z,71.79
2023-01-29T00:22:48.851Z,72.00
2023-01-29T00:25:17.399Z,71.06
2023-01-29T00:27:48.033Z,71.72
2023-01-29T00:30:19.791Z,71.90
2023-01-29T00:32:51.815Z,71.47
2023-01-29T00:35:21.378Z,71.79
2023-01-29T00:37:52.363Z,71.92
2023-01-29T00:40:20.482Z,72.16
2023-01-29T00:43:05.797Z,72.17
2023-01-29T00:45:33.917Z,71.18
2023-01-29T00:48:01.871Z,70.78
2023-01-29T00:50:31.491Z,71.34
2023-01-29T00:52:59.643Z,71.82
2023-01-29T00:55:27.597Z,71.30
2023-01-29T00:57:55.694Z,71.69
2023-01-29T01:00:26.027Z,72.00
2023-01-29T01:03:07.912Z,72.99
2023-01-29T01:05:39.104Z,72.53
2023-01-29T01:08:28.712Z,71.85
2023-01-29T01:11:00.107Z,71.74
2023-01-29T01:13:28.084Z,72.76
2023-01-29T01:15:56.121Z,73.19
2023-01-29T01:18:24.361Z,73.34
2023-01-29T01:20:58.920Z,72.46
2023-01-29T01:23:28.036Z,72.19
2023-01-29T01:25:55.983Z,72.28
2023-01-29T01:28:24.052Z,71.88
2023-01-29T01:30:52.021Z,71.61
2023-01-29T01:33:20.447Z,71.13
2023-01-29T01:35:48.444Z,70.82
2023-01-29T01:38:17.737Z,70.79
2023-01-29T01:40:47.189Z,71.99
2023-01-29T01:43:16.168Z,71.59
2023-01-29T01:45:46.723Z,71.03
2023-01-29T01:48:20.568Z,70.70
2023-01-29T01:50:54.707Z,71.72
2023-01-29T01:53:27.678Z,71.34
2023-01-29T01:55:59.931Z,71.25
2023-01-29T01:58:32.937Z,72.53
2023-01-29T02:01:01.415Z,71.95
2023-01-29T02:03:49.976Z,72.51
2023-01-29T02:06:35.718Z,71.94
2023-01-29T02:09:28.450Z,72.28
2023-01-29T02:11:56.560Z,72.37
2023-01-29T02:14:25.339Z,72.43
2023-01-29T02:16:53.370Z,73.88
2023-01-29T02:19:29.450Z,72.83
2023-01-29T02:22:17.033Z,71.33
2023-01-29T02:25:10.417Z,71.79
2023-01-29T02:28:07.651Z,72.11
2023-01-29T02:30:39.329Z,71.69
2023-01-29T02:33:21.352Z,70.94
2023-01-29T02:36:00.406Z,71.66
2023-01-29T02:38:35.554Z,70.35
2023-01-29T02:41:08.092Z,71.07
2023-01-29T02:43:47.304Z,70.94
2023-01-29T02:46:23.889Z,70.10
2023-01-29T02:48:58.276Z,71.29
2023-01-29T02:51:35.387Z,70.88
2023-01-29T02:54:08.488Z,70.67
2023-01-29T02:56:40.757Z,68.72
2023-01-29T02:59:15.378Z,69.04
2023-01-29T03:01:49.287Z,69.85
2023-01-29T03:04:23.708Z,70.35
2023-01-29T03:06:58.386Z,70.27
2023-01-29T03:09:31.310Z,70.29
2023-01-29T03:12:19.832Z,70.81
2023-01-29T03:15:10.300Z,71.18
2023-01-29T03:17:43.264Z,70.71
2023-01-29T03:20:17.430Z,70.74
2023-01-29T03:22:51.502Z,69.89
2023-01-29T03:25:39.119Z,70.57
2023-01-29T03:28:26.444Z,70.74
2023-01-29T03:31:15.463Z,72.36
2023-01-29T03:33:52.165Z,71.54
2023-01-29T03:36:23.998Z,71.84
2023-01-29T03:38:52.125Z,71.35
2023-01-29T03:41:29.965Z,71.11
2023-01-29T03:44:11.166Z,70.89
2023-01-29T03:46:47.898Z,71.26
2023-01-29T03:49:24.511Z,71.28
2023-01-29T03:51:59.391Z,70.81
2023-01-29T03:54:41.861Z,70.99
2023-01-29T03:57:17.153Z,71.74
2023-01-29T03:59:54.678Z,73.80
2023-01-29T04:02:50.346Z,73.43
2023-01-29T04:05:22.158Z,73.99
2023-01-29T04:08:09.889Z,74.06
2023-01-29T04:10:40.448Z,72.90
2023-01-29T04:13:12.318Z,72.26
2023-01-29T04:15:47.450Z,72.28
2023-01-29T04:18:17.053Z,72.45
2023-01-29T04:21:07.204Z,72.13
2023-01-29T04:23:35.538Z,71.54
2023-01-29T04:26:21.713Z,71.10
2023-01-29T04:29:03.570Z,72.33
2023-01-29T04:31:38.615Z,72.88
2023-01-29T04:34:20.727Z,71.97
2023-01-29T04:37:02.547Z,71.30
2023-01-29T04:39:37.577Z,71.66
2023-01-29T04:42:13.470Z,72.28
2023-01-29T04:44:49.842Z,71.78
2023-01-29T04:47:25.837Z,71.60
2023-01-29T04:50:09.791Z,70.33
2023-01-29T04:52:49.072Z,72.32
2023-01-29T04:55:26.580Z,73.04
2023-01-29T04:58:01.905Z,73.97
2023-01-29T05:00:34.665Z,75.46
2023-01-29T05:03:03.846Z,76.02
2023-01-29T05:05:33.857Z,76.04
2023-01-29T05:08:01.665Z,75.91
2023-01-29T05:10:30.447Z,75.13
2023-01-29T05:13:02.389Z,75.00
2023-01-29T05:15:38.177Z,74.59
2023-01-29T05:18:08.787Z,73.76
2023-01-29T05:20:40.320Z,73.01
2023-01-29T05:23:11.787Z,72.78
2023-01-29T05:25:40.285Z,72.18
2023-01-29T05:28:08.399Z,71.87
2023-01-29T05:30:38.172Z,71.45
2023-01-29T05:33:12.501Z,71.28
2023-01-29T05:35:42.080Z,72.92
2023-01-29T05:38:09.986Z,73.17
2023-01-29T05:40:38.168Z,72.63
2023-01-29T05:43:06.604Z,71.52
2023-01-29T05:45:34.618Z,71.02
2023-01-29T05:48:02.460Z,71.09
2023-01-29T05:50:30.408Z,70.99
2023-01-29T05:53:01.425Z,71.10
2023-01-29T05:55:30.482Z,71.11
2023-01-29T05:57:58.332Z,71.79
2023-01-29T06:00:26.170Z,71.86
2023-01-29T06:02:54.271Z,71.55
2023-01-29T06:05:22.081Z,71.37
2023-01-29T06:07:49.980Z,71.15
2023-01-29T06:10:19.949Z,71.51
2023-01-29T06:12:48.534Z,72.04
2023-01-29T06:15:16.634Z,71.33
2023-01-29T06:17:44.434Z,71.60
2023-01-29T06:20:13.214Z,71.33
2023-01-29T06:22:41.012Z,71.90
2023-01-29T06:25:09.985Z,71.74
2023-01-29T06:27:39.119Z,71.99
2023-01-29T06:30:08.020Z,71.63
2023-01-29T06:32:36.100Z,71.94
2023-01-29T06:35:04.279Z,72.14
2023-01-29T06:37:32.151Z,71.57
2023-01-29T06:40:00.057Z,71.97
2023-01-29T06:42:28.208Z,71.93
2023-01-29T06:44:57.686Z,72.49
2023-01-29T06:47:26.114Z,71.67
2023-01-29T06:49:53.955Z,72.33
2023-01-29T06:52:21.791Z,72.28
2023-01-29T06:54:52.842Z,71.74
2023-01-29T06:57:20.742Z,71.50
2023-01-29T06:59:48.573Z,72.35
2023-01-29T07:02:17.952Z,73.05
2023-01-29T07:04:45.774Z,73.54
2023-01-29T07:07:15.978Z,73.61
2023-01-29T07:09:44.303Z,72.97
2023-01-29T07:12:12.417Z,72.62
2023-01-29T07:14:40.286Z,72.57
2023-01-29T07:17:08.151Z,72.55
2023-01-29T07:19:37.366Z,72.99
2023-01-29T07:22:07.837Z,71.69
2023-01-29T07:24:35.936Z,71.45
2023-01-29T07:27:04.286Z,70.90
2023-01-29T07:29:32.760Z,71.12
2023-01-29T07:32:01.306Z,70.32
2023-01-29T07:34:29.919Z,70.40
2023-01-29T07:36:59.333Z,71.12
2023-01-29T07:39:27.209Z,71.16
2023-01-29T07:42:00.903Z,70.55
2023-01-29T07:44:38.567Z,70.06
2023-01-29T07:47:06.844Z,71.14
2023-01-29T07:49:34.771Z,72.26
2023-01-29T07:52:04.285Z,71.65
2023-01-29T07:54:32.450Z,71.71
2023-01-29T07:57:00.416Z,70.24
2023-01-29T07:59:28.193Z,71.50
2023-01-29T08:01:56.077Z,71.06
2023-01-29T08:04:23.966Z,70.88
2023-01-29T08:06:51.839Z,71.17
2023-01-29T08:09:21.044Z,70.92
2023-01-29T08:11:49.058Z,70.85
2023-01-29T08:14:16.903Z,69.98
2023-01-29T08:16:44.776Z,69.26
2023-01-29T08:19:12.647Z,70.63
2023-01-29T08:21:40.494Z,72.59
2023-01-29T08:24:08.349Z,72.80
2023-01-29T08:26:37.662Z,71.69
2023-01-29T08:29:05.763Z,71.13
2023-01-29T08:31:33.673Z,70.58
2023-01-29T08:34:01.554Z,70.70
2023-01-29T08:36:29.513Z,71.22
2023-01-29T08:38:57.398Z,73.05
2023-01-29T08:41:25.235Z,73.13
2023-01-29T08:43:54.452Z,73.53
2023-01-29T08:46:22.356Z,73.69
2023-01-29T08:48:50.308Z,73.75
2023-01-29T08:51:18.583Z,73.02
2023-01-29T08:53:46.453Z,72.58
2023-01-29T08:56:16.340Z,72.09
2023-01-29T08:58:44.584Z,72.14
2023-01-29T09:01:15.417Z,71.40
2023-01-29T09:03:44.507Z,71.14
2023-01-29T09:06:14.389Z,70.13
2023-01-29T09:08:42.424Z,69.91
2023-01-29T09:11:10.644Z,69.23
2023-01-29T09:13:38.799Z,69.12
2023-01-29T09:16:11.424Z,67.83
2023-01-29T09:18:40.680Z,66.94
2023-01-29T09:21:08.798Z,67.74
2023-01-29T09:23:36.747Z,67.27
2023-01-29T09:26:05.118Z,68.44
2023-01-29T09:28:32.949Z,68.13
2023-01-29T09:31:02.364Z,69.08
2023-01-29T09:33:30.990Z,68.49
2023-01-29T09:36:00.376Z,68.20
2023-01-29T09:38:28.581Z,69.05
2023-01-29T09:41:05.196Z,66.60
2023-01-29T09:43:43.648Z,65.14
2023-01-29T09:46:19.437Z,64.44
2023-01-29T09:48:49.401Z,65.47
2023-01-29T09:51:28.568Z,63.47
2023-01-29T09:54:04.723Z,63.67
2023-01-29T09:56:33.052Z,64.87
2023-01-29T09:59:01.985Z,64.19
2023-01-29T10:01:37.985Z,63.29
2023-01-29T10:04:28.600Z,61.87
2023-01-29T10:07:16.716Z,62.05
2023-01-29T10:10:07.945Z,61.01
2023-01-29T10:12:51.328Z,60.89
2023-01-29T10:15:33.353Z,60.88
2023-01-29T10:18:20.772Z,61.80
2023-01-29T10:20:59.539Z,62.30
2023-01-29T10:23:34.649Z,61.31
2023-01-29T10:26:03.418Z,62.02
2023-01-29T10:28:39.335Z,61.87
2023-01-29T10:31:11.231Z,61.34
2023-01-29T10:33:49.196Z,60.97
2023-01-29T10:36:35.413Z,62.85
2023-01-29T10:39:04.861Z,64.47
2023-01-29T10:41:53.111Z,66.62
2023-01-29T10:44:32.636Z,63.83
2023-01-29T10:47:30.885Z,63.49
2023-01-29T10:50:19.572Z,63.03
2023-01-29T10:53:13.417Z,64.38
2023-01-29T10:55:53.768Z,63.59
2023-01-29T10:58:32.094Z,62.25
2023-01-29T11:01:00.234Z,64.84
2023-01-29T11:03:30.119Z,61.97
2023-01-29T11:06:10.151Z,63.86
2023-01-29T11:08:42.023Z,62.75
2023-01-29T11:11:15.481Z,63.65
2023-01-29T11:13:49.203Z,64.03
2023-01-29T11:16:19.436Z,64.77
2023-01-29T11:18:53.573Z,64.97
2023-01-29T11:21:21.815Z,63.76
2023-01-29T11:23:49.807Z,66.12
2023-01-29T11:26:22.351Z,63.88
2023-01-29T11:28:52.531Z,64.53
2023-01-29T11:31:24.034Z,65.12
2023-01-29T11:33:54.550Z,65.49
2023-01-29T11:36:32.832Z,66.78
2023-01-29T11:39:21.685Z,64.93
2023-01-29T11:41:54.727Z,63.63
2023-01-29T11:44:28.895Z,63.69
2023-01-29T11:46:58.543Z,62.37
2023-01-29T11:49:33.536Z,61.91
2023-01-29T11:52:04.804Z,62.85
2023-01-29T11:54:37.871Z,63.75
2023-01-29T11:57:20.561Z,63.87
2023-01-29T11:59:52.100Z,62.93
2023-01-29T12:02:28.089Z,61.15
2023-01-29T12:04:58.998Z,61.74
2023-01-29T12:07:27.288Z,62.18
2023-01-29T12:09:57.293Z,61.10
2023-01-29T12:12:33.175Z,58.64
2023-01-29T12:15:24.924Z,59.83
2023-01-29T12:18:04.458Z,58.96
2023-01-29T12:20:40.429Z,57.97
2023-01-29T12:23:26.493Z,58.15
2023-01-29T12:26:02.852Z,57.62
2023-01-29T12:28:43.746Z,56.88
2023-01-29T12:31:26.280Z,56.27
2023-01-29T12:34:00.113Z,57.32
2023-01-29T12:36:32.578Z,56.69
2023-01-29T12:39:00.663Z,56.27
2023-01-29T12:41:38.133Z,57.90
2023-01-29T12:44:13.109Z,58.71
2023-01-29T12:46:49.007Z,62.65
2023-01-29T12:49:21.234Z,61.21
2023-01-29T12:51:56.770Z,59.70
2023-01-29T12:54:32.274Z,58.54
2023-01-29T12:57:09.934Z,59.52
2023-01-29T12:59:44.211Z,61.92
2023-01-29T13:02:24.741Z,59.47
2023-01-29T13:05:00.297Z,59.00
2023-01-29T13:07:33.195Z,58.02
2023-01-29T13:10:09.179Z,56.82
2023-01-29T13:12:39.980Z,57.44
2023-01-29T13:15:22.581Z,57.01
2023-01-29T13:17:55.697Z,56.50
2023-01-29T13:20:29.995Z,56.09
2023-01-29T13:23:03.320Z,56.09
2023-01-29T13:25:32.420Z,57.08
2023-01-29T13:28:00.435Z,58.20
2023-01-29T13:30:32.075Z,57.65
2023-01-29T13:33:10.501Z,55.85
2023-01-29T13:35:44.112Z,56.43
2023-01-29T13:38:26.491Z,55.50
2023-01-29T13:40:57.724Z,55.84
2023-01-29T13:43:26.096Z,57.97
2023-01-29T13:45:56.034Z,59.76
2023-01-29T13:48:28.325Z,59.53
2023-01-29T13:50:58.350Z,59.72
2023-01-29T13:53:28.430Z,61.48
2023-01-29T13:55:56.460Z,62.07
2023-01-29T13:58:54.948Z,61.40
2023-01-29T14:02:02.629Z,61.98
2023-01-29T14:04:34.033Z,61.82
2023-01-29T14:07:04.012Z,61.16
2023-01-29T14:10:03.624Z,62.67
2023-01-29T14:12:45.484Z,63.79
2023-01-29T14:15:28.877Z,64.24
2023-01-29T14:18:04.523Z,61.55
2023-01-29T14:20:45.523Z,61.13
2023-01-29T14:23:25.065Z,60.40
2023-01-29T14:25:53.233Z,60.44
2023-01-29T14:28:25.864Z,60.67
2023-01-29T14:30:55.016Z,61.56
2023-01-29T14:33:29.788Z,60.43
2023-01-29T14:36:04.446Z,60.11
2023-01-29T14:38:34.443Z,60.97
2023-01-29T14:41:10.661Z,60.28
2023-01-29T14:43:38.550Z,60.24
2023-01-29T14:46:42.871Z,60.73
2023-01-29T14:49:10.816Z,59.32
2023-01-29T14:51:45.324Z,57.96
2023-01-29T14:54:26.342Z,58.37
2023-01-29T14:57:00.806Z,59.33
2023-01-29T14:59:35.104Z,59.39
2023-01-29T15:02:13.304Z,59.48
2023-01-29T15:04:47.540Z,58.39
2023-01-29T15:07:29.479Z,59.50
2023-01-29T15:10:21.527Z,59.23
2023-01-29T15:12:53.892Z,60.58
2023-01-29T15:15:30.226Z,60.43
2023-01-29T15:18:02.933Z,60.29
2023-01-29T15:20:33.513Z,60.57
2023-01-29T15:23:04.152Z,60.60
2023-01-29T15:25:37.011Z,59.84
2023-01-29T15:28:08.576Z,60.86
2023-01-29T15:30:37.809Z,62.04
2023-01-29T15:33:10.694Z,61.82
2023-01-29T15:35:40.678Z,61.92
2023-01-29T15:38:17.438Z,62.66
2023-01-29T15:40:53.422Z,63.11
2023-01-29T15:43:24.931Z,63.73
2023-01-29T15:45:54.778Z,65.34
2023-01-29T15:48:31.984Z,64.81
2023-01-29T15:51:01.234Z,65.19
2023-01-29T15:53:36.037Z,64.74
2023-01-29T15:56:10.131Z,66.51
2023-01-29T15:58:38.600Z,65.22
2023-01-29T16:01:07.452Z,65.62
2023-01-29T16:03:37.667Z,65.31
2023-01-29T16:06:08.752Z,65.93
2023-01-29T16:08:41.140Z,66.20
2023-01-29T16:11:16.407Z,65.52
2023-01-29T16:13:49.070Z,66.38
2023-01-29T16:16:26.209Z,65.42
2023-01-29T16:19:00.348Z,66.23
2023-01-29T16:21:33.603Z,66.07
2023-01-29T16:24:09.579Z,66.21
2023-01-29T16:26:43.243Z,66.09
2023-01-29T16:29:14.017Z,66.91
2023-01-29T16:31:44.175Z,67.73
2023-01-29T16:34:20.677Z,67.94
2023-01-29T16:36:52.848Z,68.64
2023-01-29T16:39:25.999Z,70.04
2023-01-29T16:42:22.284Z,70.81
2023-01-29T16:44:56.142Z,70.29
2023-01-29T16:47:34.437Z,68.60
2023-01-29T16:50:20.820Z,68.88
2023-01-29T16:52:57.866Z,69.35
2023-01-29T16:55:27.567Z,69.45
2023-01-29T16:57:57.404Z,70.06
2023-01-29T17:00:27.464Z,70.07
2023-01-29T17:03:00.742Z,70.35
2023-01-29T17:05:31.146Z,70.59
2023-01-29T17:08:00.451Z,71.17
2023-01-29T17:10:31.662Z,70.45
2023-01-29T17:13:06.315Z,70.55
2023-01-29T17:15:37.643Z,71.17
2023-01-29T17:18:17.197Z,70.39
2023-01-29T17:20:45.243Z,70.65
2023-01-29T17:23:15.673Z,70.26
2023-01-29T17:25:46.033Z,70.44
2023-01-29T17:28:14.839Z,70.93
2023-01-29T17:30:44.897Z,70.96
2023-01-29T17:33:22.649Z,71.85
2023-01-29T17:35:51.421Z,72.26
2023-01-29T17:38:26.499Z,72.59
2023-01-29T17:40:59.344Z,71.92
2023-01-29T17:43:27.422Z,72.27
2023-01-29T17:45:55.608Z,72.23
2023-01-29T17:48:25.469Z,72.31
2023-01-29T17:50:56.464Z,71.91
2023-01-29T17:53:43.345Z,72.21
2023-01-29T17:56:18.269Z,72.26
2023-01-29T17:58:46.961Z,72.28
2023-01-29T18:01:15.020Z,72.13
2023-01-29T18:03:43.924Z,72.17
2023-01-29T18:06:26.799Z,72.41
2023-01-29T18:09:03.922Z,72.99
2023-01-29T18:11:35.815Z,72.85
2023-01-29T18:14:14.209Z,73.40
2023-01-29T18:16:45.282Z,73.09
2023-01-29T18:19:21.691Z,73.60
2023-01-29T18:21:50.231Z,72.85
2023-01-29T18:24:21.157Z,73.43
2023-01-29T18:26:51.196Z,73.53
2023-01-29T18:29:19.679Z,73.53
2023-01-29T18:31:50.044Z,73.69
2023-01-29T18:34:18.387Z,73.80
2023-01-29T18:36:47.830Z,73.42
2023-01-29T18:39:16.505Z,72.97
2023-01-29T18:41:44.491Z,73.26
2023-01-29T18:44:14.042Z,73.43
2023-01-29T18:46:42.829Z,73.43
2023-01-29T18:49:10.772Z,73.48
2023-01-29T18:51:38.797Z,73.65
2023-01-29T18:54:07.317Z,73.49
2023-01-29T18:56:35.351Z,73.86
2023-01-29T18:59:04.924Z,73.39
2023-01-29T19:01:35.906Z,73.76
2023-01-29T19:04:03.834Z,74.07
2023-01-29T19:06:36.133Z,73.88
2023-01-29T19:09:06.548Z,74.42
2023-01-29T19:11:34.557Z,74.45
2023-01-29T19:14:02.684Z,74.34
2023-01-29T19:16:30.886Z,74.83
2023-01-29T19:19:00.174Z,74.73
2023-01-29T19:21:28.505Z,74.47
2023-01-29T19:23:56.832Z,74.65
2023-01-29T19:26:25.131Z,75.05
2023-01-29T19:28:53.167Z,75.33
2023-01-29T19:31:21.685Z,75.39
2023-01-29T19:33:49.570Z,75.24
2023-01-29T19:36:19.155Z,75.26
2023-01-29T19:38:49.358Z,74.88
2023-01-29T19:41:17.413Z,74.76
2023-01-29T19:43:46.422Z,74.53
2023-01-29T19:46:14.518Z,74.68
2023-01-29T19:48:43.136Z,74.40
2023-01-29T19:51:13.107Z,74.57
2023-01-29T19:53:45.046Z,74.85
2023-01-29T19:56:15.052Z,74.94
2023-01-29T19:58:44.827Z,74.57
2023-01-29T20:01:16.079Z,74.85
2023-01-29T20:03:46.460Z,74.90
2023-01-29T20:06:16.965Z,75.22
2023-01-29T20:08:47.056Z,74.88
2023-01-29T20:11:15.776Z,75.51
2023-01-29T20:13:43.758Z,76.18
2023-01-29T20:16:11.911Z,76.13
2023-01-29T20:18:40.357Z,76.26
2023-01-29T20:21:12.242Z,76.14
2023-01-29T20:23:40.925Z,76.06
2023-01-29T20:26:13.696Z,76.20
2023-01-29T20:28:42.454Z,76.12
2023-01-29T20:31:11.207Z,76.02
2023-01-29T20:33:39.816Z,75.85
2023-01-29T20:36:10.192Z,76.17
2023-01-29T20:38:38.855Z,76.53
2023-01-29T20:41:08.802Z,78.26
2023-01-29T20:43:38.167Z,78.18
2023-01-29T20:46:06.712Z,77.45
2023-01-29T20:48:35.221Z,76.79
2023-01-29T20:51:09.278Z,76.52
2023-01-29T20:53:38.497Z,76.84
2023-01-29T20:56:07.455Z,76.29
2023-01-29T20:58:38.210Z,76.90
2023-01-29T21:01:10.510Z,76.46
2023-01-29T21:03:39.907Z,77.11
2023-01-29T21:06:09.509Z,76.84
2023-01-29T21:08:38.464Z,77.17
2023-01-29T21:11:07.840Z,76.99
2023-01-29T21:13:38.628Z,77.34
2023-01-29T21:16:07.173Z,77.95
2023-01-29T21:18:40.098Z,77.55
2023-01-29T21:21:08.074Z,77.69
2023-01-29T21:23:36.049Z,79.55
2023-01-29T21:26:04.925Z,80.82
2023-01-29T21:28:33.338Z,80.11
2023-01-29T21:31:05.815Z,79.82
2023-01-29T21:33:35.034Z,81.44
2023-01-29T21:36:05.585Z,81.46
2023-01-29T21:38:33.921Z,80.44
2023-01-29T21:41:02.285Z,79.25
2023-01-29T21:43:29.669Z,78.66
2023-01-29T21:46:03.900Z,79.06
2023-01-29T21:48:32.316Z,78.81
2023-01-29T21:51:04.249Z,77.47
2023-01-29T21:53:32.334Z,77.38
2023-01-29T21:56:01.657Z,78.17
2023-01-29T21:58:30.456Z,77.95
2023-01-29T22:01:11.408Z,78.20
2023-01-29T22:03:47.484Z,78.46
2023-01-29T22:06:17.083Z,78.29
2023-01-29T22:08:45.091Z,77.64
2023-01-29T22:11:13.152Z,77.95
2023-01-29T22:13:43.291Z,77.79
2023-01-29T22:16:11.284Z,77.53
2023-01-29T22:18:39.233Z,78.82
2023-01-29T22:21:07.100Z,78.45
2023-01-29T22:23:36.372Z,79.11
2023-01-29T22:26:05.227Z,78.81
2023-01-29T22:28:33.173Z,78.65
2023-01-29T22:31:04.575Z,78.71
2023-01-29T22:33:33.191Z,79.20
2023-01-29T22:36:01.230Z,79.59
2023-01-29T22:38:29.552Z,79.31
2023-01-29T22:41:00.842Z,79.33
2023-01-29T22:43:29.230Z,78.50
2023-01-29T22:45:58.231Z,78.26
2023-01-29T22:48:26.873Z,78.11
2023-01-29T22:51:09.873Z,77.79
2023-01-29T22:53:39.232Z,78.52
2023-01-29T22:56:09.425Z,79.13
2023-01-29T22:58:37.585Z,79.07
2023-01-29T23:01:06.035Z,78.66
2023-01-29T23:03:34.176Z,79.64
2023-01-29T23:06:02.235Z,79.60
2023-01-29T23:08:30.106Z,79.24
2023-01-29T23:11:14.499Z,79.88
2023-01-29T23:13:46.032Z,79.72
2023-01-29T23:16:14.754Z,80.49
2023-01-29T23:18:45.834Z,80.82
2023-01-29T23:21:13.864Z,80.26
2023-01-29T23:23:44.055Z,80.11
2023-01-29T23:26:30.710Z,80.07
2023-01-29T23:29:01.202Z,79.44
2023-01-29T23:31:29.246Z,78.71
2023-01-29T23:33:57.250Z,79.94
2023-01-29T23:36:25.177Z,81.17
2023-01-29T23:38:53.175Z,80.65
2023-01-29T23:41:21.337Z,79.95
2023-01-29T23:43:49.948Z,80.54
2023-01-29T23:46:19.340Z,80.47
2023-01-29T23:48:47.247Z,80.01
2023-01-29T23:51:15.235Z,79.21
2023-01-29T23:53:43.303Z,79.95
2023-01-29T23:56:12.646Z,80.12
2023-01-29T23:58:40.689Z,80.43
